Time;durP1;ratioP1;P1;durP2;ratioP2;P2;SDS_P1;SDS_P2;PMS_P1;PMS_P2;Temp;Humidity;BMP_temperature;BMP_pressure;BME280_temperature;BME280_humidity;BME280_pressure;Samples;Min_cycle;Max_cycle;Signal;HPM_P1;HPM_P2
2022/07/08 00:00:13;;;;;;;3.10;2.20;;;;;;;18.10;60.71;100537.69;4930975;29;20504;-93
2022/07/08 00:02:39;;;;;;;3.70;1.77;;;;;;;18.06;60.86;100533.56;4921374;29;20486;-92
2022/07/08 00:05:07;;;;;;;2.53;1.30;;;;;;;18.04;60.99;100530.19;4939028;28;20505;-91
2022/07/08 00:07:35;;;;;;;2.80;1.50;;;;;;;18.00;60.99;100534.91;4932154;28;20252;-91
2022/07/08 00:10:03;;;;;;;2.10;1.53;;;;;;;17.96;61.33;100532.59;4949854;28;20510;-92
2022/07/08 00:12:29;;;;;;;2.40;1.40;;;;;;;17.92;61.11;100532.84;4933037;28;20520;-93
2022/07/08 00:14:54;;;;;;;1.43;1.33;;;;;;;17.90;61.14;100526.81;4947841;28;20493;-92
2022/07/08 00:17:22;;;;;;;1.70;1.60;;;;;;;17.87;61.28;100524.38;4949987;28;20214;-93
2022/07/08 00:19:50;;;;;;;1.80;1.70;;;;;;;17.81;61.50;100522.22;4949997;28;20225;-93
2022/07/08 00:22:16;;;;;;;1.40;1.30;;;;;;;17.78;61.71;100521.59;4932776;29;20478;-91
2022/07/08 00:24:45;;;;;;;2.00;1.50;;;;;;;17.76;61.71;100523.53;4932776;28;20233;-91
2022/07/08 00:27:13;;;;;;;1.87;1.57;;;;;;;17.74;61.87;100517.47;4949932;28;20290;-92
2022/07/08 00:29:41;;;;;;;3.50;1.80;;;;;;;17.71;61.79;100518.56;4950862;28;20892;-91
2022/07/08 00:32:17;;;;;;;3.13;1.70;;;;;;;17.69;61.84;100520.53;4934514;28;21234;-90
2022/07/08 00:34:42;;;;;;;1.77;1.67;;;;;;;17.66;62.07;100518.94;4914116;29;21049;-92
2022/07/08 00:37:08;;;;;;;2.30;1.67;;;;;;;17.64;61.99;100525.34;4933277;29;20513;-90
2022/07/08 00:39:34;;;;;;;1.80;1.70;;;;;;;17.61;62.17;100526.44;4932663;29;20202;-90
2022/07/08 00:42:01;;;;;;;1.63;1.50;;;;;;;17.58;62.35;100541.75;4931411;29;20733;-93
2022/07/08 00:44:27;;;;;;;2.13;1.50;;;;;;;17.54;62.52;100527.88;4929483;29;20217;-92
2022/07/08 00:47:00;;;;;;;2.63;2.10;;;;;;;17.48;62.78;100529.19;4931215;29;20450;-91
2022/07/08 00:49:26;;;;;;;3.77;1.80;;;;;;;17.43;62.78;100526.03;4912463;29;20477;-91
2022/07/08 00:51:52;;;;;;;1.63;1.50;;;;;;;17.41;62.91;100524.47;4930595;29;20473;-93
2022/07/08 00:54:22;;;;;;;3.00;1.40;;;;;;;17.34;63.11;100534.75;4932434;29;20209;-92
2022/07/08 00:56:50;;;;;;;1.97;1.87;;;;;;;17.31;63.21;100536.75;4927947;29;20474;-92
2022/07/08 00:59:16;;;;;;;2.63;1.60;;;;;;;17.30;63.25;100541.25;4930209;29;20510;-92
2022/07/08 01:01:44;;;;;;;1.80;1.70;;;;;;;17.33;63.70;100542.81;4911630;29;20521;-91
2022/07/08 01:04:12;;;;;;;2.20;1.77;;;;;;;17.29;63.84;100542.22;4929622;29;20331;-93
2022/07/08 01:06:37;;;;;;;1.83;1.67;;;;;;;17.25;63.88;100551.38;4929190;29;20246;-92
2022/07/08 01:09:04;;;;;;;2.03;1.30;;;;;;;17.16;64.06;100542.28;4930864;29;20476;-91
2022/07/08 01:11:33;;;;;;;2.27;1.77;;;;;;;17.12;64.27;100546.16;4927731;29;20440;-91
2022/07/08 01:13:59;;;;;;;2.90;1.60;;;;;;;17.05;64.55;100546.75;4929476;29;20469;-92
2022/07/08 01:16:25;;;;;;;2.67;1.63;;;;;;;16.97;64.67;100549.97;4927943;29;20469;-92
2022/07/08 01:18:50;;;;;;;2.30;1.60;;;;;;;16.92;64.82;100557.44;4930256;29;20229;-94
2022/07/08 01:21:16;;;;;;;3.40;2.33;;;;;;;16.90;64.92;100560.19;4930268;29;20306;-91
2022/07/08 01:23:42;;;;;;;3.63;2.03;;;;;;;16.92;64.93;100554.78;4929327;29;20549;-92
2022/07/08 01:26:13;;;;;;;2.03;1.93;;;;;;;16.90;65.17;100562.84;4896790;29;20224;-90
2022/07/08 01:28:41;;;;;;;2.60;1.80;;;;;;;16.88;65.33;100559.47;4927900;29;20983;-91
2022/07/08 01:31:07;;;;;;;2.03;1.83;;;;;;;16.87;65.43;100555.09;4927415;29;20469;-90
2022/07/08 01:33:45;;;;;;;;;;;;;;;;;;;;;
2022/07/08 01:36:11;;;;;;;4.10;1.80;;;;;;;16.87;65.92;100557.75;4925841;29;20222;-91
2022/07/08 01:38:37;;;;;;;3.23;1.80;;;;;;;16.82;65.95;100562.56;4930112;29;20489;-91
2022/07/08 01:41:12;;;;;;;2.27;1.83;;;;;;;16.78;65.92;100561.97;4928618;29;20272;-91
2022/07/08 01:43:42;;;;;;;1.83;1.73;;;;;;;16.72;65.92;100562.38;4928113;29;20593;-90
2022/07/08 01:46:10;;;;;;;2.50;1.70;;;;;;;16.69;66.04;100556.44;4911828;29;20501;-92
2022/07/08 01:48:35;;;;;;;2.60;2.40;;;;;;;16.66;66.06;100560.19;4928110;29;20486;-91
2022/07/08 01:51:01;;;;;;;2.00;1.90;;;;;;;16.66;66.09;100564.63;4928161;29;20273;-92
2022/07/08 01:53:27;;;;;;;2.87;2.13;;;;;;;16.62;66.00;100564.03;4927733;29;21294;-92
2022/07/08 01:55:55;;;;;;;1.97;1.77;;;;;;;16.52;66.24;100566.50;4910007;29;20481;-90
2022/07/08 01:58:23;;;;;;;4.17;2.10;;;;;;;16.46;66.66;100564.28;4928149;29;20528;-91
2022/07/08 02:00:53;;;;;;;3.50;2.17;;;;;;;16.40;66.67;100559.44;4927897;29;20461;-91
2022/07/08 02:03:19;;;;;;;2.83;2.33;;;;;;;16.31;67.29;100574.22;4912899;29;20569;-92
2022/07/08 02:05:52;;;;;;;2.30;2.10;;;;;;;16.19;67.46;100584.84;4930187;29;20262;-90
2022/07/08 02:08:23;;;;;;;1.90;1.80;;;;;;;16.13;67.56;100578.19;4929287;29;20512;-92
2022/07/08 02:13:37;;;;;;;2.10;1.70;;;;;;;15.98;68.00;100588.06;4913137;29;20467;-91
2022/07/08 02:16:06;;;;;;;2.00;1.90;;;;;;;15.93;67.82;100596.34;4930711;29;20451;-91
2022/07/08 02:18:31;;;;;;;2.40;1.80;;;;;;;15.99;67.70;100588.94;4930074;29;20560;-91
2022/07/08 02:20:57;;;;;;;2.20;2.00;;;;;;;16.02;67.58;100588.72;4919875;29;20228;-91
2022/07/08 02:23:27;;;;;;;2.53;2.33;;;;;;;16.01;67.70;100592.28;4930934;29;20205;-91
2022/07/08 02:25:52;;;;;;;3.20;1.80;;;;;;;16.01;67.60;100590.50;4913634;29;20216;-92
2022/07/08 02:28:21;;;;;;;5.23;2.43;;;;;;;16.02;67.56;100594.84;4913445;29;20533;-92
2022/07/08 02:30:46;;;;;;;2.20;1.90;;;;;;;16.01;67.60;100589.66;4912842;29;20205;-92
2022/07/08 02:33:15;;;;;;;2.40;2.03;;;;;;;15.99;67.59;100599.53;4930527;29;21176;-90
2022/07/08 02:35:40;;;;;;;2.07;1.73;;;;;;;15.92;67.80;100596.44;4931821;29;20520;-92
2022/07/08 02:38:06;;;;;;;2.83;2.00;;;;;;;15.78;68.36;100601.88;4932346;29;20217;-92
2022/07/08 02:40:32;;;;;;;2.23;1.90;;;;;;;15.67;68.65;100603.44;4935882;28;20190;-92
2022/07/08 02:42:57;;;;;;;4.83;2.27;;;;;;;15.60;68.75;100606.59;4949997;28;20463;-91
2022/07/08 02:45:23;;;;;;;2.20;2.00;;;;;;;15.57;68.97;100610.31;4949985;28;20216;-90
2022/07/08 02:47:49;;;;;;;2.50;2.30;;;;;;;15.59;68.89;100608.41;4948965;28;20229;-92
2022/07/08 02:50:20;;;;;;;3.70;2.00;;;;;;;15.62;68.69;100616.13;4949402;28;20221;-93
2022/07/08 02:52:48;;;;;;;2.20;1.97;;;;;;;15.62;68.60;100618.78;4949941;28;20265;-93
2022/07/08 02:55:14;;;;;;;2.40;2.20;;;;;;;15.61;68.85;100617.09;4946498;28;20517;-92
2022/07/08 02:57:49;;;;;;;2.23;2.13;;;;;;;15.58;68.81;100627.91;4929734;29;20457;-93
2022/07/08 03:00:17;;;;;;;2.20;1.83;;;;;;;15.56;68.86;100629.81;4929042;29;20680;-92
2022/07/08 03:02:43;;;;;;;2.93;1.93;;;;;;;15.53;69.08;100635.31;4928338;29;20473;-90
2022/07/08 03:05:12;;;;;;;2.60;2.03;;;;;;;15.54;69.12;100633.50;4929829;29;20512;-90
2022/07/08 03:07:44;;;;;;;2.30;1.80;;;;;;;15.53;68.73;100635.31;4915160;29;20263;-90
2022/07/08 03:10:12;;;;;;;2.50;2.10;;;;;;;15.53;68.96;100643.25;4929498;29;20488;-90
2022/07/08 03:12:38;;;;;;;2.33;1.80;;;;;;;15.54;68.84;100636.16;4929509;29;20468;-90
2022/07/08 03:15:07;;;;;;;3.50;2.30;;;;;;;15.56;68.72;100647.50;4930006;29;20541;-90
2022/07/08 03:17:35;;;;;;;4.53;2.20;;;;;;;15.58;68.59;100643.78;4931065;29;20209;-89
2022/07/08 03:20:01;;;;;;;3.47;2.23;;;;;;;15.61;68.38;100650.69;4932565;29;20476;-89
2022/07/08 03:22:28;;;;;;;3.07;2.33;;;;;;;15.64;68.24;100651.31;4926351;29;20504;-90
2022/07/08 03:24:57;;;;;;;4.67;2.20;;;;;;;15.63;67.97;100657.53;4928880;29;20220;-91
2022/07/08 03:27:22;;;;;;;5.10;3.00;;;;;;;15.62;68.10;100658.50;4927401;29;20575;-89
2022/07/08 03:29:58;;;;;;;;;;;;;;;;;;;;;
2022/07/08 03:32:26;;;;;;;2.72;2.10;;;;;;;15.65;67.81;100654.81;4929180;29;20998;-91
2022/07/08 03:34:52;;;;;;;5.77;2.47;;;;;;;15.63;67.78;100651.41;4916045;29;20212;-92
2022/07/08 03:37:18;;;;;;;2.13;2.00;;;;;;;15.60;68.02;100655.09;4914312;29;20470;-90
2022/07/08 03:39:44;;;;;;;2.27;2.07;;;;;;;15.58;67.87;100662.34;4932018;29;20440;-90
2022/07/08 03:42:09;;;;;;;11.43;3.67;;;;;;;15.58;67.71;100664.97;4935337;29;20947;-92
2022/07/08 03:44:35;;;;;;;2.90;2.53;;;;;;;15.52;67.82;100660.06;4932246;29;20303;-93
2022/07/08 03:47:01;;;;;;;5.93;2.40;;;;;;;15.40;68.05;100664.41;4931887;29;20210;-90
2022/07/08 03:49:39;;;;;;;;;;;;;;;;;;;;;
2022/07/08 03:52:05;;;;;;;5.60;2.80;;;;;;;15.14;68.56;100671.41;4934509;29;20320;-90
2022/07/08 03:54:31;;;;;;;3.60;3.00;;;;;;;15.04;68.61;100673.84;4934445;29;20528;-91
2022/07/08 03:56:57;;;;;;;2.90;2.50;;;;;;;15.00;68.17;100677.63;4935290;29;20464;-91
2022/07/08 03:59:25;;;;;;;3.30;2.70;;;;;;;15.04;67.90;100675.59;4932369;29;20622;-91
2022/07/08 04:01:51;;;;;;;4.93;3.60;;;;;;;15.10;67.29;100672.59;4936264;29;20492;-91
2022/07/08 04:04:17;;;;;;;7.03;3.20;;;;;;;15.11;66.96;100668.97;4920219;29;20229;-92
2022/07/08 04:06:42;;;;;;;4.67;3.33;;;;;;;15.12;66.51;100678.63;4944187;29;20248;-91
2022/07/08 04:09:08;;;;;;;4.47;2.83;;;;;;;15.18;66.13;100678.22;4951004;28;20242;-92
2022/07/08 04:11:36;;;;;;;6.00;2.90;;;;;;;15.24;65.75;100685.75;4933947;28;20214;-90
2022/07/08 04:14:04;;;;;;;6.70;3.73;;;;;;;15.29;65.28;100689.91;4950806;28;20266;-91
2022/07/08 04:16:30;;;;;;;4.80;3.00;;;;;;;15.29;64.77;100690.75;4929377;29;20480;-92
2022/07/08 04:19:06;;;;;;;6.63;3.57;;;;;;;15.30;64.66;100700.38;4933537;29;20260;-93
2022/07/08 04:21:45;;;;;;;4.93;3.73;;;;;;;15.30;64.38;100699.53;4937116;29;20432;-92
2022/07/08 04:24:11;;;;;;;6.93;3.40;;;;;;;15.27;64.23;100690.84;4943399;29;20473;-92
2022/07/08 04:26:36;;;;;;;6.63;3.53;;;;;;;15.24;64.04;100692.84;4943167;29;20465;-91
2022/07/08 04:29:02;;;;;;;5.83;3.27;;;;;;;15.23;63.98;100697.31;4942490;29;20551;-91
2022/07/08 04:31:28;;;;;;;9.03;3.63;;;;;;;15.24;64.14;100698.13;4943012;23;20402;-76
2022/07/08 04:33:54;;;;;;;7.17;4.17;;;;;;;15.24;63.68;100701.63;4949357;28;20492;-75
2022/07/08 04:36:20;;;;;;;4.30;3.13;;;;;;;15.25;63.53;100705.97;4961085;28;20462;-76
2022/07/08 04:38:46;;;;;;;5.47;4.40;;;;;;;15.18;63.32;100698.56;4953114;28;20234;-76
2022/07/08 04:41:11;;;;;;;5.07;4.10;;;;;;;15.13;63.37;100701.50;4963530;28;20546;-76
2022/07/08 04:43:37;;;;;;;6.33;4.20;;;;;;;15.09;63.23;100701.78;4951534;28;20218;-76
2022/07/08 04:46:02;;;;;;;5.73;5.00;;;;;;;15.05;63.37;100709.06;4953964;28;20373;-77
2022/07/08 04:48:27;;;;;;;5.43;4.00;;;;;;;15.08;63.02;100711.53;4944983;28;20228;-75
2022/07/08 04:50:53;;;;;;;3.90;3.40;;;;;;;15.10;62.94;100717.56;4953689;28;20222;-75
2022/07/08 04:53:18;;;;;;;5.00;3.70;;;;;;;15.15;62.57;100710.19;4947135;28;20266;-75
2022/07/08 04:55:44;;;;;;;6.20;3.70;;;;;;;15.80;60.62;100705.94;4954754;28;20199;-75
2022/07/08 04:58:09;;;;;;;6.53;4.03;;;;;;;16.54;58.10;100713.09;4952501;28;20211;-76
2022/07/08 05:00:34;;;;;;;6.90;3.90;;;;;;;16.74;57.32;100709.06;4949322;28;20801;-76
2022/07/08 05:03:01;;;;;;;7.83;4.83;;;;;;;17.21;56.03;100709.22;4956807;28;20634;-75
2022/07/08 05:05:27;;;;;;;7.27;4.10;;;;;;;18.59;52.21;100706.63;4928374;28;20236;-76
2022/07/08 05:07:53;;;;;;;6.67;3.83;;;;;;;20.17;47.96;100700.69;4952690;28;20483;-76
2022/07/08 05:10:24;;;;;;;5.37;3.30;;;;;;;21.33;44.83;100684.16;4949475;28;20892;-77
2022/07/08 05:12:50;;;;;;;7.33;4.23;;;;;;;22.24;42.51;100689.97;4935015;28;20306;-76
2022/07/08 05:15:16;;;;;;;5.17;3.37;;;;;;;22.70;41.44;100691.72;4952107;28;20534;-76
2022/07/08 05:17:41;;;;;;;8.50;3.40;;;;;;;23.24;40.21;100688.28;4955442;28;20241;-76
2022/07/08 05:20:09;;;;;;;10.40;4.30;;;;;;;23.54;39.34;100690.56;4952601;28;20205;-76
2022/07/08 05:22:35;;;;;;;6.90;3.80;;;;;;;23.87;38.39;100684.63;4931461;28;20661;-76
2022/07/08 05:25:01;;;;;;;9.23;3.13;;;;;;;24.31;37.38;100681.88;4964192;28;20452;-75
2022/07/08 05:27:27;;;;;;;5.97;3.53;;;;;;;24.62;36.56;100684.88;4955148;28;20884;-77
2022/07/08 05:29:52;;;;;;;3.73;3.40;;;;;;;25.06;35.86;100680.13;4928058;28;21307;-77
2022/07/08 05:32:17;;;;;;;9.57;4.00;;;;;;;25.51;34.91;100686.88;4944295;28;20284;-78
2022/07/08 05:34:44;;;;;;;5.60;3.03;;;;;;;25.79;34.06;100683.88;4957300;28;20920;-76
2022/07/08 05:37:11;;;;;;;3.53;2.83;;;;;;;26.00;33.67;100681.47;4945980;28;20235;-76
2022/07/08 05:39:38;;;;;;;4.27;3.20;;;;;;;26.04;33.58;100676.59;4945982;28;20485;-77
2022/07/08 05:42:04;;;;;;;5.27;3.13;;;;;;;26.35;33.13;100673.97;4947333;28;20492;-76
2022/07/08 05:44:30;;;;;;;6.17;3.70;;;;;;;26.64;32.59;100678.75;4950272;28;20527;-76
2022/07/08 05:46:55;;;;;;;3.27;3.00;;;;;;;26.96;31.71;100670.66;4953986;28;20265;-77
2022/07/08 05:49:22;;;;;;;7.20;3.60;;;;;;;27.19;31.75;100681.47;4947608;28;20472;-77
2022/07/08 05:51:47;;;;;;;8.00;3.80;;;;;;;27.15;31.51;100681.81;4956015;28;20504;-76
2022/07/08 05:54:12;;;;;;;5.07;3.40;;;;;;;27.36;31.06;100680.34;4949401;28;20285;-76
2022/07/08 05:56:38;;;;;;;3.03;2.73;;;;;;;27.47;30.84;100677.22;4948035;28;20300;-76
2022/07/08 05:59:03;;;;;;;3.27;2.70;;;;;;;27.50;30.67;100673.31;4951528;28;20204;-76
2022/07/08 06:01:28;;;;;;;5.13;3.30;;;;;;;27.75;30.30;100673.91;4941999;28;21037;-76
2022/07/08 06:03:54;;;;;;;9.27;4.20;;;;;;;28.23;28.93;100683.38;4947263;28;20470;-76
2022/07/08 06:06:19;;;;;;;7.20;3.20;;;;;;;28.31;28.75;100679.75;4953947;28;20287;-76
2022/07/08 06:08:45;;;;;;;3.50;3.20;;;;;;;28.42;28.41;100687.38;4958836;28;20234;-76
2022/07/08 06:11:10;;;;;;;4.60;2.90;;;;;;;28.59;28.42;100685.31;4945959;28;20324;-77
2022/07/08 06:13:35;;;;;;;8.27;3.07;;;;;;;28.48;28.47;100687.69;4942854;28;20206;-76
2022/07/08 06:16:01;;;;;;;5.40;3.00;;;;;;;28.52;28.44;100689.84;4936523;28;20223;-76
2022/07/08 06:18:26;;;;;;;5.00;3.17;;;;;;;28.65;28.01;100692.69;4939592;28;20207;-77
2022/07/08 06:20:52;;;;;;;9.03;3.30;;;;;;;29.10;27.48;100692.59;4937909;28;21207;-77
2022/07/08 06:23:17;;;;;;;4.10;2.70;;;;;;;29.55;27.11;100687.81;4936929;28;20955;-76
2022/07/08 06:25:42;;;;;;;5.43;3.23;;;;;;;29.86;26.46;100683.91;4940938;28;20219;-76
2022/07/08 06:28:08;;;;;;;3.93;3.20;;;;;;;29.65;26.61;100688.34;4943008;28;20224;-77
2022/07/08 06:30:34;;;;;;;8.40;3.50;;;;;;;29.25;26.89;100698.78;4947208;28;20214;-76
2022/07/08 06:33:00;;;;;;;4.53;3.72;;;;;;;29.38;26.67;100689.09;4948084;28;20888;-77
2022/07/08 06:35:28;;;;;;;7.47;3.20;;;;;;;29.51;26.23;100695.47;4950934;28;20219;-77
2022/07/08 06:37:54;;;;;;;4.83;2.73;;;;;;;29.41;26.38;100691.41;4955972;28;20226;-76
2022/07/08 06:40:21;;;;;;;4.83;2.70;;;;;;;29.60;26.32;100693.47;4944178;28;20469;-77
2022/07/08 06:42:47;;;;;;;4.33;2.40;;;;;;;29.76;26.17;100692.41;4937335;28;20232;-77
2022/07/08 06:45:13;;;;;;;4.27;2.80;;;;;;;29.26;26.71;100686.94;4992830;28;20510;-76
2022/07/08 06:47:42;;;;;;;5.63;2.77;;;;;;;29.04;27.16;100687.97;4995786;28;20522;-76
2022/07/08 06:50:10;;;;;;;4.33;3.00;;;;;;;29.40;26.60;100687.06;5002546;28;20200;-76
2022/07/08 06:52:36;;;;;;;3.83;3.37;;;;;;;29.79;26.16;100681.16;5002179;28;20492;-76
2022/07/08 06:55:05;;;;;;;5.07;2.80;;;;;;;30.37;25.49;100676.31;4996266;28;20298;-76
2022/07/08 06:57:30;;;;;;;5.90;3.43;;;;;;;30.43;25.54;100688.22;4995276;28;20196;-76
2022/07/08 06:59:56;;;;;;;2.30;2.10;;;;;;;30.37;25.10;100684.44;5001425;28;20516;-76
2022/07/08 07:02:22;;;;;;;3.70;2.60;;;;;;;30.53;24.91;100690.56;4994141;28;20487;-76
2022/07/08 07:04:47;;;;;;;5.30;3.40;;;;;;;31.04;24.54;100698.28;5001591;28;20281;-76
2022/07/08 07:07:13;;;;;;;3.27;2.90;;;;;;;31.25;24.52;100702.72;4999730;28;20285;-76
2022/07/08 07:09:38;;;;;;;3.37;2.53;;;;;;;31.33;23.75;100699.78;5011069;28;20282;-77
2022/07/08 07:12:07;;;;;;;4.93;2.73;;;;;;;31.48;23.62;100695.00;5013728;28;20247;-76
2022/07/08 07:14:33;;;;;;;4.73;2.90;;;;;;;31.34;24.07;100690.59;5016755;28;20619;-77
2022/07/08 07:16:59;;;;;;;6.00;2.27;;;;;;;31.41;24.44;100705.06;4999222;28;20513;-77
2022/07/08 07:19:25;;;;;;;4.37;3.50;;;;;;;31.41;24.26;100702.34;5005154;28;20446;-76
2022/07/08 07:21:50;;;;;;;3.93;2.70;;;;;;;31.58;23.88;100701.91;5004067;28;20258;-77
2022/07/08 07:24:16;;;;;;;4.73;2.87;;;;;;;31.44;24.31;100701.91;4998757;28;20830;-76
2022/07/08 07:26:41;;;;;;;6.20;3.07;;;;;;;31.70;23.84;100695.66;5001021;28;20205;-76
2022/07/08 07:29:07;;;;;;;5.07;2.93;;;;;;;32.05;23.77;100703.56;5017517;28;20633;-76
2022/07/08 07:31:33;;;;;;;5.10;4.60;;;;;;;31.86;23.55;100704.41;5005397;28;20245;-76
2022/07/08 07:33:58;;;;;;;3.50;3.20;;;;;;;31.63;24.31;100696.69;5007892;28;20458;-76
2022/07/08 07:36:24;;;;;;;4.07;2.97;;;;;;;31.66;23.79;100697.09;5002883;28;20208;-76
2022/07/08 07:38:49;;;;;;;2.97;2.50;;;;;;;31.46;23.93;100705.28;4999468;28;20271;-76
2022/07/08 07:41:14;;;;;;;6.20;3.00;;;;;;;31.38;23.82;100694.63;5000926;28;20208;-77
2022/07/08 07:43:40;;;;;;;3.63;3.00;;;;;;;31.52;23.73;100699.00;5010585;28;20772;-76
2022/07/08 07:46:06;;;;;;;7.63;2.97;;;;;;;31.77;23.48;100689.38;5009753;28;20201;-76
2022/07/08 07:48:31;;;;;;;4.20;3.20;;;;;;;31.48;24.05;100700.44;5003285;28;21431;-76
2022/07/08 07:50:56;;;;;;;3.83;2.97;;;;;;;30.72;24.82;100703.38;4999429;28;20209;-76
2022/07/08 07:53:23;;;;;;;3.10;2.50;;;;;;;30.00;25.97;100699.19;5004064;28;20798;-76
2022/07/08 07:55:49;;;;;;;4.27;2.87;;;;;;;29.91;26.10;100694.97;5006404;28;20779;-76
2022/07/08 07:58:14;;;;;;;4.47;2.73;;;;;;;30.31;25.71;100697.97;5000841;28;20509;-76
2022/07/08 08:00:39;;;;;;;6.63;3.60;;;;;;;30.61;25.24;100702.06;4999371;28;20203;-76
2022/07/08 08:03:05;;;;;;;5.53;2.97;;;;;;;30.85;24.81;100700.72;4998538;28;20963;-76
2022/07/08 08:05:30;;;;;;;4.43;3.07;;;;;;;30.90;24.89;100704.72;4995377;28;20212;-76
2022/07/08 08:07:55;;;;;;;4.90;2.57;;;;;;;30.94;24.81;100709.50;5010129;28;20233;-76
2022/07/08 08:10:21;;;;;;;6.73;3.47;;;;;;;31.22;23.82;100708.56;5002462;28;20810;-76
2022/07/08 08:12:46;;;;;;;7.30;4.27;;;;;;;31.25;23.95;100713.56;5007850;28;20239;-77
2022/07/08 08:15:12;;;;;;;3.13;2.43;;;;;;;31.10;24.08;100719.16;5000560;28;20205;-76
2022/07/08 08:17:39;;;;;;;7.80;3.37;;;;;;;31.25;24.22;100710.84;5009876;28;20204;-76
2022/07/08 08:20:06;;;;;;;2.77;2.57;;;;;;;31.54;23.78;100709.63;5001066;28;20626;-76
2022/07/08 08:22:32;;;;;;;4.00;2.50;;;;;;;31.14;24.42;100722.31;5003618;28;21083;-76
2022/07/08 08:24:58;;;;;;;6.73;2.90;;;;;;;30.50;25.11;100720.81;5002491;28;20472;-77
2022/07/08 08:27:24;;;;;;;4.97;2.70;;;;;;;29.79;25.65;100721.78;5001199;28;20545;-76
2022/07/08 08:29:49;;;;;;;7.13;3.03;;;;;;;29.25;26.48;100717.72;5011880;28;20277;-76
2022/07/08 08:32:15;;;;;;;4.67;3.10;;;;;;;28.40;28.07;100726.44;5005853;28;20489;-76
2022/07/08 08:34:40;;;;;;;2.63;2.43;;;;;;;27.51;29.40;100734.34;5003119;28;20449;-76
2022/07/08 08:37:06;;;;;;;4.50;2.60;;;;;;;26.97;30.02;100735.19;5002925;28;20723;-75
2022/07/08 08:39:32;;;;;;;5.07;3.17;;;;;;;26.49;31.15;100734.34;5012446;28;20214;-76
2022/07/08 08:41:58;;;;;;;4.03;2.53;;;;;;;26.09;31.52;100733.47;5007934;28;20481;-76
2022/07/08 08:44:23;;;;;;;4.23;3.60;;;;;;;25.71;32.36;100733.16;4999228;28;20205;-76
2022/07/08 08:46:52;;;;;;;5.47;2.90;;;;;;;25.37;33.05;100730.59;5006805;28;20517;-76
2022/07/08 08:49:19;;;;;;;5.67;2.73;;;;;;;25.00;33.70;100731.00;5003512;28;20664;-76
2022/07/08 08:51:49;;;;;;;5.17;2.57;;;;;;;25.07;33.75;100732.88;5010283;28;20478;-76
2022/07/08 08:54:16;;;;;;;4.90;3.00;;;;;;;25.12;33.77;100727.00;5003188;28;20444;-76
2022/07/08 08:56:43;;;;;;;4.97;3.10;;;;;;;24.74;34.13;100731.94;4997718;28;20469;-76
2022/07/08 08:59:09;;;;;;;4.53;2.80;;;;;;;24.78;34.05;100727.06;4998416;28;20463;-75
2022/07/08 09:01:35;;;;;;;3.00;2.80;;;;;;;24.56;34.17;100725.81;5006155;28;20848;-76
2022/07/08 09:04:01;;;;;;;5.87;3.30;;;;;;;24.18;34.92;100725.25;5005300;28;20497;-76
2022/07/08 09:06:26;;;;;;;4.07;2.73;;;;;;;24.24;35.32;100716.56;5005170;28;20210;-76
2022/07/08 09:08:52;;;;;;;6.17;2.70;;;;;;;24.30;35.49;100715.91;4998832;28;20489;-76
2022/07/08 09:11:19;;;;;;;6.10;2.83;;;;;;;24.60;35.15;100719.09;5004226;28;20936;-76
2022/07/08 09:13:44;;;;;;;11.00;2.70;;;;;;;24.80;34.73;100704.41;5004945;28;21095;-76
2022/07/08 09:16:10;;;;;;;3.73;2.47;;;;;;;24.99;34.48;100697.91;5009027;28;20461;-76
2022/07/08 09:18:38;;;;;;;6.50;3.30;;;;;;;25.10;35.11;100694.06;5004543;28;20478;-76
2022/07/08 09:21:04;;;;;;;2.77;2.37;;;;;;;25.39;34.62;100690.94;4997853;28;20214;-76
2022/07/08 09:23:33;;;;;;;5.80;2.27;;;;;;;25.27;33.82;100694.94;5010570;28;20487;-76
2022/07/08 09:26:03;;;;;;;6.20;2.80;;;;;;;25.24;33.94;100696.13;4995705;28;21368;-76
2022/07/08 09:28:33;;;;;;;4.20;2.30;;;;;;;25.21;34.05;100691.09;4998818;28;20990;-76
2022/07/08 09:31:00;;;;;;;3.20;2.90;;;;;;;25.08;34.42;100690.69;5006826;28;20446;-76
2022/07/08 09:33:27;;;;;;;6.78;3.08;;;;;;;24.97;34.28;100688.31;5004175;28;20918;-76
2022/07/08 09:35:54;;;;;;;6.33;2.23;;;;;;;24.57;34.69;100690.72;5005268;28;20984;-76
2022/07/08 09:38:21;;;;;;;3.90;3.00;;;;;;;24.50;34.91;100692.38;5007299;28;20514;-76
2022/07/08 09:40:53;;;;;;;8.60;3.23;;;;;;;24.71;34.94;100694.66;5009550;28;20524;-76
2022/07/08 09:43:18;;;;;;;3.90;1.73;;;;;;;24.76;34.82;100686.09;5000970;28;20478;-76
2022/07/08 09:45:44;;;;;;;3.13;2.83;;;;;;;25.10;34.51;100686.00;5003157;28;20543;-77
2022/07/08 09:48:09;;;;;;;7.10;3.50;;;;;;;25.27;34.14;100689.56;5004865;28;20226;-76
2022/07/08 09:50:46;;;;;;;2.90;1.87;;;;;;;25.63;33.31;100687.41;5000470;28;20215;-76
2022/07/08 09:53:19;;;;;;;3.00;2.13;;;;;;;25.86;32.45;100687.56;5003271;28;20223;-76
2022/07/08 09:55:48;;;;;;;2.13;1.93;;;;;;;25.62;32.71;100683.00;5007129;28;20469;-77
2022/07/08 09:58:15;;;;;;;5.17;3.00;;;;;;;25.71;32.56;100684.72;5003582;28;20491;-76
2022/07/08 10:00:42;;;;;;;2.23;2.03;;;;;;;25.75;32.61;100686.03;5004091;28;20470;-77
2022/07/08 10:03:07;;;;;;;3.60;2.60;;;;;;;25.99;32.47;100685.19;5005334;28;20498;-76
2022/07/08 10:05:33;;;;;;;3.23;2.20;;;;;;;26.06;32.08;100690.75;5008180;28;20486;-76
2022/07/08 10:07:58;;;;;;;3.30;2.33;;;;;;;25.95;32.36;100697.31;5002087;28;20236;-76
2022/07/08 10:10:25;;;;;;;2.57;2.10;;;;;;;25.99;31.93;100700.50;5000832;28;20200;-76
2022/07/08 10:12:56;;;;;;;2.47;2.03;;;;;;;25.94;32.47;100703.69;5001457;28;20295;-77
2022/07/08 10:15:24;;;;;;;3.10;1.80;;;;;;;25.98;32.11;100705.06;5003691;28;20473;-76
2022/07/08 10:17:50;;;;;;;2.80;2.10;;;;;;;26.25;31.94;100692.19;5009462;28;20589;-76
2022/07/08 10:20:18;;;;;;;2.93;2.33;;;;;;;26.50;31.70;100695.63;5003796;28;20475;-76
2022/07/08 10:22:46;;;;;;;3.40;1.87;;;;;;;26.76;31.44;100691.81;5008188;28;20239;-76
2022/07/08 10:25:12;;;;;;;4.20;2.30;;;;;;;26.84;31.36;100691.78;4999608;28;20466;-76
2022/07/08 10:27:38;;;;;;;3.20;2.40;;;;;;;26.80;31.05;100696.69;5003144;28;20479;-76
2022/07/08 10:30:18;;;;;;;4.93;2.40;;;;;;;26.59;31.09;100689.22;4994728;28;20470;-77
2022/07/08 10:32:48;;;;;;;5.77;2.77;;;;;;;26.65;30.60;100702.00;4996561;28;20244;-76
2022/07/08 10:35:19;;;;;;;3.90;2.70;;;;;;;26.74;30.98;100689.31;4998722;28;20564;-76
2022/07/08 10:37:45;;;;;;;6.50;3.10;;;;;;;27.02;30.55;100695.03;5002238;28;20851;-76
2022/07/08 10:40:11;;;;;;;6.07;3.40;;;;;;;27.08;30.38;100697.00;5001811;28;20517;-76
2022/07/08 10:42:37;;;;;;;3.40;3.10;;;;;;;26.84;30.54;100689.09;4994518;28;20231;-76
2022/07/08 10:45:02;;;;;;;9.13;2.30;;;;;;;26.68;31.49;100692.69;5002655;28;20454;-76
2022/07/08 10:47:28;;;;;;;3.80;2.37;;;;;;;26.77;31.13;100688.97;4999000;28;20327;-75
2022/07/08 10:50:06;;;;;;;4.97;2.50;;;;;;;26.33;31.48;100691.31;4999935;28;20309;-76
2022/07/08 10:52:38;;;;;;;4.17;2.40;;;;;;;26.02;32.23;100692.06;5000499;28;20232;-76
2022/07/08 10:55:12;;;;;;;7.93;3.17;;;;;;;26.09;32.31;100698.47;5002109;28;20851;-76
2022/07/08 10:57:37;;;;;;;3.63;2.30;;;;;;;26.20;31.89;100692.72;5009757;28;20562;-76
2022/07/08 11:00:13;;;;;;;2.90;2.30;;;;;;;26.02;32.21;100689.38;5004047;28;20604;-76
2022/07/08 11:02:45;;;;;;;4.30;2.80;;;;;;;26.15;32.05;100691.56;5001917;28;21139;-77
2022/07/08 11:05:36;;;;;;;4.37;2.27;;;;;;;26.33;31.60;100691.31;5004361;28;20520;-75
2022/07/08 11:08:20;;;;;;;5.03;2.57;;;;;;;26.30;31.48;100691.66;5003686;28;20483;-76
2022/07/08 11:10:46;;;;;;;5.60;2.50;;;;;;;26.18;32.06;100688.50;5005291;28;20467;-76
2022/07/08 11:13:12;;;;;;;3.23;2.60;;;;;;;25.99;32.18;100685.19;5005732;28;20475;-77
2022/07/08 11:15:37;;;;;;;3.00;2.40;;;;;;;26.01;32.37;100682.34;5010162;28;20873;-75
2022/07/08 11:18:03;;;;;;;3.10;2.63;;;;;;;26.01;32.46;100687.72;4998571;28;20255;-76
2022/07/08 11:20:32;;;;;;;5.80;2.67;;;;;;;26.08;32.08;100686.00;5000704;28;20200;-75
2022/07/08 11:23:03;;;;;;;4.33;3.40;;;;;;;26.07;32.24;100692.41;5008015;28;20327;-78
2022/07/08 11:25:30;;;;;;;4.53;2.90;;;;;;;26.00;32.43;100692.22;5011220;28;20467;-76
2022/07/08 11:27:55;;;;;;;3.60;2.73;;;;;;;25.97;32.39;100692.59;5000097;28;20487;-77
2022/07/08 11:30:21;;;;;;;2.83;2.10;;;;;;;25.93;32.70;100691.25;4999851;28;20470;-77